Time;durP1;ratioP1;P1;durP2;ratioP2;P2;SDS_P1;SDS_P2;PMS_P1;PMS_P2;Temp;Humidity;BMP_temperature;BMP_pressure;BME280_temperature;BME280_humidity;BME280_pressure;Samples;Min_cycle;Max_cycle;Signal;HPM_P1;HPM_P2
2022/05/18 00:00:15;;;;;;;3.60;2.50;;;;;;;19.08;61.19;99962.97;345140;28;792;-75
2022/05/18 00:00:30;;;;;;;6.55;2.90;;;;;;;19.08;61.23;99962.16;345054;28;1029;-74
2022/05/18 00:00:42;;;;;;;6.95;2.80;;;;;;;19.08;61.12;99967.41;344867;28;1047;-75
2022/05/18 00:00:57;;;;;;;4.53;2.47;;;;;;;19.08;61.37;99967.41;344675;28;1055;-75
2022/05/18 00:01:11;;;;;;;5.80;2.70;;;;;;;19.03;61.51;99965.03;344765;28;1208;-74
2022/05/18 00:01:23;;;;;;;4.68;2.70;;;;;;;19.04;61.41;99958.84;345149;28;1261;-74
2022/05/18 00:01:35;;;;;;;3.85;2.58;;;;;;;19.05;61.53;99963.16;344906;28;1011;-75
2022/05/18 00:01:48;;;;;;;4.80;2.78;;;;;;;19.03;61.41;99959.78;344846;28;1038;-74
2022/05/18 00:02:00;;;;;;;4.88;2.97;;;;;;;19.06;61.30;99964.88;345178;28;1175;-75
2022/05/18 00:02:12;;;;;;;4.53;2.70;;;;;;;19.06;61.56;99964.88;345014;28;1784;-75
2022/05/18 00:02:25;;;;;;;5.00;2.42;;;;;;;19.01;61.24;99953.75;344972;28;1111;-75
2022/05/18 00:02:38;;;;;;;5.75;2.45;;;;;;;19.00;61.45;99969.69;344921;28;1054;-74
2022/05/18 00:02:50;;;;;;;5.72;2.63;;;;;;;19.00;61.67;99964.41;344930;28;1151;-74
2022/05/18 00:03:08;;;;;;;4.63;2.65;;;;;;;18.95;61.86;99968.19;344804;28;1067;-75
2022/05/18 00:03:28;;;;;;;4.75;2.60;;;;;;;18.94;61.69;99961.22;345237;28;1067;-74
2022/05/18 00:03:44;;;;;;;6.00;2.72;;;;;;;19.00;61.51;99961.78;345182;28;1281;-75
2022/05/18 00:03:56;;;;;;;4.05;2.60;;;;;;;19.01;61.52;99964.28;345195;28;1177;-74
2022/05/18 00:04:08;;;;;;;4.30;2.38;;;;;;;19.05;61.45;99963.16;345201;28;1156;-75
2022/05/18 00:04:20;;;;;;;5.15;2.40;;;;;;;19.04;61.16;99966.75;345172;28;1168;-75
2022/05/18 00:04:32;;;;;;;5.38;2.47;;;;;;;18.98;61.52;99961.88;345467;28;869;-75
2022/05/18 00:04:44;;;;;;;5.35;2.42;;;;;;;19.00;61.51;99965.25;345130;28;1196;-74
2022/05/18 00:04:56;;;;;;;4.55;2.50;;;;;;;19.00;61.55;99965.25;345249;28;1026;-74
2022/05/18 00:05:09;;;;;;;3.95;2.58;;;;;;;19.00;61.51;99965.25;344915;28;1063;-74
2022/05/18 00:05:21;;;;;;;4.70;2.70;;;;;;;19.01;61.57;99969.56;345086;28;1997;-74
2022/05/18 00:05:36;;;;;;;4.05;2.53;;;;;;;18.96;61.65;99963.75;345209;28;1336;-75
2022/05/18 00:05:48;;;;;;;5.00;2.70;;;;;;;18.94;61.82;99965.63;344836;28;1226;-74
2022/05/18 00:06:01;;;;;;;4.90;2.72;;;;;;;18.96;61.68;99969.03;344855;28;1194;-75
2022/05/18 00:06:14;;;;;;;4.68;2.70;;;;;;;18.99;61.62;99966.19;344918;28;1023;-74
2022/05/18 00:06:26;;;;;;;5.00;2.60;;;;;;;19.01;61.49;99966.94;345002;28;1205;-75
2022/05/18 00:06:38;;;;;;;4.60;2.72;;;;;;;19.02;61.32;99968.63;345018;28;1172;-74
2022/05/18 00:06:50;;;;;;;4.60;2.80;;;;;;;19.05;61.38;99968.44;345080;28;1284;-74
2022/05/18 00:07:03;;;;;;;4.38;2.58;;;;;;;19.05;61.39;99972.84;344827;28;1304;-74
2022/05/18 00:07:15;;;;;;;4.18;2.60;;;;;;;18.99;61.67;99968.81;344617;28;1023;-74
2022/05/18 00:07:27;;;;;;;4.93;2.75;;;;;;;18.94;61.58;99970.91;344756;28;1019;-74
2022/05/18 00:07:39;;;;;;;5.32;2.72;;;;;;;18.94;61.79;99968.28;344994;28;1059;-75
2022/05/18 00:07:52;;;;;;;4.63;2.63;;;;;;;18.95;61.68;99969.94;344219;28;1240;-74
2022/05/18 00:08:05;;;;;;;3.55;2.65;;;;;;;18.94;61.84;99966.47;343549;28;1255;-74
2022/05/18 00:08:17;;;;;;;4.57;2.65;;;;;;;18.95;62.03;99969.94;343872;28;1074;-75
2022/05/18 00:08:35;;;;;;;4.47;2.65;;;;;;;18.97;61.86;99965.44;343455;28;1264;-75
2022/05/18 00:08:48;;;;;;;4.05;2.58;;;;;;;18.98;61.92;99964.50;343536;28;1042;-74
2022/05/18 00:09:00;;;;;;;4.18;2.58;;;;;;;18.98;61.60;99967.13;344077;28;749;-75
2022/05/18 00:09:11;;;;;;;4.72;2.63;;;;;;;19.00;61.54;99970.53;343761;28;1076;-74
2022/05/18 00:09:24;;;;;;;5.07;2.55;;;;;;;19.01;61.97;99972.19;343562;28;1207;-74
2022/05/18 00:09:36;;;;;;;5.22;2.58;;;;;;;19.03;61.72;99969.47;342341;28;1058;-74
2022/05/18 00:09:50;;;;;;;4.47;2.40;;;;;;;19.05;61.49;99973.69;342146;28;1354;-74
2022/05/18 00:10:03;;;;;;;3.95;2.58;;;;;;;19.07;61.36;99966.53;343560;28;1051;-75
2022/05/18 00:10:16;;;;;;;3.65;2.67;;;;;;;19.09;61.42;99969.94;344852;28;1015;-75
2022/05/18 00:10:28;;;;;;;3.20;2.50;;;;;;;19.11;61.44;99972.47;344980;28;1055;-75
2022/05/18 00:10:43;;;;;;;4.05;2.45;;;;;;;19.12;61.20;99968.91;344855;28;1072;-75
2022/05/18 00:10:55;;;;;;;4.00;2.45;;;;;;;19.13;61.49;99970.59;343306;28;1275;-75
2022/05/18 00:11:11;;;;;;;3.17;2.45;;;;;;;19.13;61.10;99971.44;343398;28;1297;-74
2022/05/18 00:11:23;;;;;;;3.25;2.40;;;;;;;19.14;61.09;99975.78;343359;28;1062;-75
2022/05/18 00:11:35;;;;;;;3.58;2.33;;;;;;;19.16;60.88;99971.25;343814;28;1042;-74
2022/05/18 00:11:47;;;;;;;3.40;2.40;;;;;;;19.16;61.04;99976.50;345111;28;1078;-74
2022/05/18 00:11:59;;;;;;;4.15;2.40;;;;;;;19.16;61.14;99971.25;344865;28;1035;-75
2022/05/18 00:12:12;;;;;;;4.13;2.42;;;;;;;19.14;61.05;99972.28;344800;28;1046;-74
2022/05/18 00:12:24;;;;;;;4.05;2.63;;;;;;;19.10;61.14;99974.28;344925;28;1266;-74
2022/05/18 00:12:43;;;;;;;4.10;2.80;;;;;;;19.06;61.11;99975.41;344854;28;1075;-74
2022/05/18 00:12:55;;;;;;;5.45;2.95;;;;;;;19.04;61.23;99971.19;343984;28;1041;-75
2022/05/18 00:13:09;;;;;;;7.40;3.08;;;;;;;19.03;61.40;99975.59;344005;28;1035;-74
2022/05/18 00:13:21;;;;;;;7.55;3.13;;;;;;;19.04;61.44;99972.03;343706;28;1106;-75
2022/05/18 00:13:33;;;;;;;5.25;2.97;;;;;;;19.02;61.29;99976.53;343537;28;1043;-75
2022/05/18 00:13:47;;;;;;;5.60;2.72;;;;;;;19.01;61.49;99977.47;343593;28;1215;-74
2022/05/18 00:13:59;;;;;;;5.45;2.63;;;;;;;19.02;61.92;99979.19;343718;28;1096;-75
2022/05/18 00:14:12;;;;;;;4.88;2.80;;;;;;;19.01;61.62;99971.34;344074;28;748;-75
2022/05/18 00:14:24;;;;;;;4.68;2.90;;;;;;;19.02;61.61;99968.63;343723;28;1065;-75
2022/05/18 00:14:37;;;;;;;4.30;2.80;;;;;;;19.03;61.70;99978.22;343794;28;1060;-75
2022/05/18 00:14:49;;;;;;;4.40;2.90;;;;;;;19.00;61.62;99978.44;343328;28;1036;-75
2022/05/18 00:15:01;;;;;;;4.07;3.13;;;;;;;19.02;61.41;99979.19;344457;28;1070;-75
2022/05/18 00:15:16;;;;;;;3.90;2.90;;;;;;;19.04;61.60;99976.44;344900;28;1017;-74
2022/05/18 00:15:29;;;;;;;4.00;2.70;;;;;;;19.05;61.56;99978.97;345107;28;1019;-75
2022/05/18 00:15:43;;;;;;;3.90;2.63;;;;;;;19.06;61.41;99975.41;345141;28;1095;-75
2022/05/18 00:15:55;;;;;;;3.35;2.55;;;;;;;19.07;61.39;99977.09;344882;28;1129;-74
2022/05/18 00:16:08;;;;;;;2.78;2.40;;;;;;;19.05;61.25;99976.34;345064;28;1020;-74
2022/05/18 00:16:23;;;;;;;2.83;2.50;;;;;;;19.05;61.40;99973.69;343808;28;1026;-75
2022/05/18 00:16:36;;;;;;;2.85;2.55;;;;;;;19.07;61.45;99981.50;343546;28;1051;-75
2022/05/18 00:16:48;;;;;;;3.78;2.80;;;;;;;19.07;61.55;99977.09;342323;28;1248;-74
2022/05/18 00:17:03;;;;;;;4.18;2.80;;;;;;;19.06;61.40;99975.41;342659;28;815;-75
2022/05/18 00:17:15;;;;;;;3.83;2.78;;;;;;;19.06;61.54;99980.69;342432;28;1124;-74
2022/05/18 00:17:27;;;;;;;3.38;2.60;;;;;;;19.04;61.56;99977.28;342356;28;1036;-74
2022/05/18 00:17:39;;;;;;;3.85;2.60;;;;;;;19.04;61.49;99977.28;342549;28;1175;-75
2022/05/18 00:17:52;;;;;;;4.25;2.55;;;;;;;19.02;61.37;99968.63;342472;28;1068;-75
2022/05/18 00:18:04;;;;;;;4.00;2.60;;;;;;;19.01;61.41;99980.09;343575;28;1015;-75
2022/05/18 00:18:16;;;;;;;3.63;2.67;;;;;;;19.04;61.46;99982.56;343675;28;1182;-74
2022/05/18 00:18:28;;;;;;;3.67;2.70;;;;;;;19.06;61.28;99979.84;343721;28;1224;-75
2022/05/18 00:18:40;;;;;;;3.90;2.70;;;;;;;19.06;61.24;99975.41;343691;28;1296;-75
2022/05/18 00:18:53;;;;;;;4.07;2.85;;;;;;;19.05;61.47;99978.13;344498;28;1184;-74
2022/05/18 00:19:05;;;;;;;4.45;2.92;;;;;;;19.06;61.53;99972.78;344842;28;1070;-75
2022/05/18 00:19:17;;;;;;;3.83;2.97;;;;;;;19.08;61.21;99973.53;344952;28;1239;-75
2022/05/18 00:19:30;;;;;;;4.30;2.80;;;;;;;19.08;61.32;99972.69;344935;28;1317;-75
2022/05/18 00:19:43;;;;;;;4.50;2.70;;;;;;;19.08;61.04;99972.69;345070;28;1298;-75
2022/05/18 00:19:54;;;;;;;4.18;2.67;;;;;;;19.08;61.27;99978.78;344827;28;1043;-75
2022/05/18 00:20:08;;;;;;;3.92;2.50;;;;;;;19.08;61.42;99978.78;344932;28;1179;-74
2022/05/18 00:20:21;;;;;;;4.22;2.70;;;;;;;19.04;61.57;99982.56;344982;28;1022;-75
2022/05/18 00:20:33;;;;;;;4.45;2.85;;;;;;;19.06;61.35;99980.69;345108;28;1199;-74
2022/05/18 00:20:46;;;;;;;4.00;2.90;;;;;;;19.09;61.25;99983.09;345134;28;1146;-75
2022/05/18 00:21:00;;;;;;;3.63;2.60;;;;;;;19.08;61.26;99978.78;345467;28;782;-74
2022/05/18 00:21:13;;;;;;;3.67;2.60;;;;;;;19.07;61.45;99976.25;344646;28;936;-75
2022/05/18 00:21:25;;;;;;;4.15;2.65;;;;;;;19.06;61.56;99975.41;344833;28;1292;-75
2022/05/18 00:21:37;;;;;;;4.25;2.70;;;;;;;19.07;61.35;99979.72;344872;28;1236;-75
2022/05/18 00:21:49;;;;;;;4.38;2.70;;;;;;;19.07;61.52;99977.09;344887;28;1327;-75
2022/05/18 00:22:02;;;;;;;4.45;2.65;;;;;;;19.08;61.22;99978.78;344886;28;1068;-75
2022/05/18 00:22:15;;;;;;;4.55;2.60;;;;;;;19.10;61.44;99981.34;344962;28;1087;-75
2022/05/18 00:22:27;;;;;;;3.95;2.40;;;;;;;19.09;61.18;99969.94;343971;28;1094;-75
2022/05/18 00:22:55;;;;;;;4.45;2.65;;;;;;;19.10;61.10;99978.69;342444;28;1071;-75
2022/05/18 00:23:07;;;;;;;5.22;2.95;;;;;;;19.12;61.14;99979.44;343650;28;1128;-75
2022/05/18 00:23:19;;;;;;;5.80;2.95;;;;;;;19.10;61.10;99976.91;343501;28;1216;-75
2022/05/18 00:23:33;;;;;;;5.53;2.85;;;;;;;19.10;61.27;99982.19;343597;28;1550;-75
2022/05/18 00:23:45;;;;;;;4.45;2.90;;;;;;;19.12;61.20;99974.19;343681;28;1020;-75
2022/05/18 00:23:58;;;;;;;3.88;2.80;;;;;;;19.12;61.24;99982.94;343732;28;1202;-75
2022/05/18 00:24:10;;;;;;;3.20;2.63;;;;;;;19.07;61.47;99978.88;343956;28;1811;-75
2022/05/18 00:24:23;;;;;;;3.28;2.72;;;;;;;19.02;61.38;99979.19;343884;28;1030;-74
2022/05/18 00:24:35;;;;;;;3.47;2.70;;;;;;;18.97;61.39;99975.97;345342;28;745;-75
2022/05/18 00:24:47;;;;;;;3.15;2.60;;;;;;;18.99;61.44;99979.34;345218;28;1074;-75
2022/05/18 00:25:01;;;;;;;3.13;2.50;;;;;;;19.00;61.51;99977.59;345077;28;1213;-74
2022/05/18 00:25:13;;;;;;;4.05;2.60;;;;;;;19.02;61.49;99981.81;345100;28;1026;-75
2022/05/18 00:25:29;;;;;;;4.07;2.65;;;;;;;19.03;61.55;99975.59;345450;28;1006;-74
2022/05/18 00:25:41;;;;;;;4.10;2.70;;;;;;;19.03;61.12;99974.75;345085;28;1046;-75
2022/05/18 00:25:53;;;;;;;4.43;2.72;;;;;;;19.04;61.19;99987.00;345039;28;1121;-74
2022/05/18 00:26:05;;;;;;;5.35;2.92;;;;;;;19.03;61.25;99972.94;345148;28;1281;-75
2022/05/18 00:26:18;;;;;;;4.72;2.90;;;;;;;19.05;61.19;99986.88;345249;28;1015;-75
2022/05/18 00:26:30;;;;;;;3.88;2.80;;;;;;;19.05;61.17;99984.22;345355;28;1199;-74
2022/05/18 00:26:42;;;;;;;4.72;2.85;;;;;;;19.06;61.04;99985.09;345231;28;1247;-75
2022/05/18 00:26:54;;;;;;;4.63;2.92;;;;;;;19.06;61.03;99980.69;345170;28;1356;-75
2022/05/18 00:27:06;;;;;;;4.18;2.85;;;;;;;19.04;61.16;99976.44;345128;28;1906;-75
2022/05/18 00:27:18;;;;;;;5.05;2.78;;;;;;;19.01;61.52;99977.47;345161;28;1132;-75
2022/05/18 00:27:30;;;;;;;4.93;2.83;;;;;;;19.00;61.31;99978.44;345070;28;1140;-75
2022/05/18 00:27:42;;;;;;;5.78;2.85;;;;;;;19.01;61.53;99980.09;345206;28;1026;-75
2022/05/18 00:27:54;;;;;;;5.60;2.85;;;;;;;19.01;61.46;99980.09;345128;28;1129;-74
2022/05/18 00:28:07;;;;;;;6.10;2.80;;;;;;;19.00;61.35;99974.97;345210;28;1200;-74
2022/05/18 00:28:19;;;;;;;5.55;2.70;;;;;;;19.04;61.49;99982.56;345235;28;1104;-74
2022/05/18 00:28:33;;;;;;;4.50;2.70;;;;;;;19.04;61.31;99979.94;345013;28;1395;-74
2022/05/18 00:28:45;;;;;;;4.03;2.80;;;;;;;19.05;61.57;99973.69;345195;28;1031;-75
2022/05/18 00:28:57;;;;;;;3.47;2.78;;;;;;;19.06;61.47;99975.41;345210;28;1011;-75
2022/05/18 00:29:09;;;;;;;4.22;2.88;;;;;;;19.08;61.30;99978.78;345291;28;1106;-75
2022/05/18 00:29:22;;;;;;;3.95;2.70;;;;;;;19.07;61.27;99977.09;345240;28;1215;-75
2022/05/18 00:29:34;;;;;;;4.95;2.72;;;;;;;19.08;61.26;99973.53;345069;28;1311;-74
2022/05/18 00:29:46;;;;;;;5.40;2.85;;;;;;;19.08;61.30;99978.78;345073;28;1318;-75
2022/05/18 00:29:58;;;;;;;5.22;2.83;;;;;;;19.09;61.41;99971.72;345251;28;1050;-75
2022/05/18 00:30:12;;;;;;;3.85;2.70;;;;;;;19.08;61.10;99978.78;345051;28;1019;-75
2022/05/18 00:30:27;;;;;;;4.78;2.83;;;;;;;19.09;61.14;99977.81;345119;28;1230;-75
2022/05/18 00:30:39;;;;;;;6.30;3.17;;;;;;;19.09;61.01;99975.19;345295;28;1135;-75
2022/05/18 00:30:51;;;;;;;6.03;3.15;;;;;;;19.09;61.01;99975.19;344994;28;1213;-74
2022/05/18 00:31:04;;;;;;;5.53;3.10;;;;;;;19.08;60.94;99970.88;345083;28;1071;-75
2022/05/18 00:31:19;;;;;;;4.82;2.90;;;;;;;19.06;61.12;99975.41;344948;28;1075;-75
2022/05/18 00:31:31;;;;;;;3.92;2.80;;;;;;;19.07;61.31;99971.81;344928;28;1023;-75
2022/05/18 00:31:46;;;;;;;3.42;2.60;;;;;;;19.07;61.27;99977.09;345029;28;1341;-75
2022/05/18 00:31:58;;;;;;;3.58;2.55;;;;;;;19.09;61.09;99969.94;345150;28;1034;-75
2022/05/18 00:32:10;;;;;;;3.92;2.80;;;;;;;19.10;61.19;99970.78;345043;28;1272;-74
2022/05/18 00:32:23;;;;;;;4.57;2.92;;;;;;;19.10;60.98;99974.28;345215;28;1217;-74
2022/05/18 00:32:35;;;;;;;5.53;2.85;;;;;;;19.12;60.95;99975.03;345395;28;1039;-74
2022/05/18 00:32:47;;;;;;;6.68;2.70;;;;;;;19.12;61.15;99976.81;345252;28;1203;-74
2022/05/18 00:33:03;;;;;;;5.85;2.47;;;;;;;19.13;61.07;99970.59;344964;28;1018;-74
2022/05/18 00:33:15;;;;;;;4.35;2.50;;;;;;;19.12;61.08;99975.03;345112;28;1145;-74
2022/05/18 00:33:28;;;;;;;4.43;2.70;;;;;;;19.14;60.99;99967.03;344941;28;1213;-74
2022/05/18 00:33:40;;;;;;;7.07;2.90;;;;;;;19.12;61.09;99969.75;345117;28;1051;-75
2022/05/18 00:33:52;;;;;;;6.47;2.95;;;;;;;19.11;61.10;99970.69;344219;28;1130;-75
2022/05/18 00:34:04;;;;;;;7.25;3.22;;;;;;;19.11;61.00;99973.31;345101;28;1119;-75
2022/05/18 00:34:16;;;;;;;5.18;3.33;;;;;;;19.12;61.03;99971.53;345163;28;1035;-74
2022/05/18 00:34:28;;;;;;;5.15;3.10;;;;;;;19.12;60.94;99974.19;345309;28;1159;-75
2022/05/18 00:34:40;;;;;;;5.28;2.90;;;;;;;19.11;60.95;99970.69;345025;28;1144;-75
2022/05/18 00:34:52;;;;;;;5.95;2.80;;;;;;;19.11;60.98;99973.31;345071;28;1194;-75
2022/05/18 00:35:05;;;;;;;5.15;2.70;;;;;;;19.10;61.28;99971.63;345402;28;1245;-75
2022/05/18 00:35:18;;;;;;;4.07;2.65;;;;;;;19.09;61.17;99969.09;344802;28;1046;-75
2022/05/18 00:35:32;;;;;;;4.57;2.65;;;;;;;19.07;61.29;99974.44;345064;28;1059;-74
2022/05/18 00:35:44;;;;;;;4.22;2.63;;;;;;;19.08;61.12;99973.53;345066;28;1191;-75
2022/05/18 00:35:57;;;;;;;4.90;2.53;;;;;;;19.09;60.98;99969.94;345066;28;1222;-75
2022/05/18 00:36:09;;;;;;;6.00;2.80;;;;;;;19.01;61.13;99966.94;344999;28;1055;-74
2022/05/18 00:36:21;;;;;;;4.97;2.90;;;;;;;18.99;61.43;99971.44;345053;28;1015;-74
2022/05/18 00:36:33;;;;;;;5.30;3.10;;;;;;;18.98;61.28;99964.50;344960;28;1079;-74
2022/05/18 00:36:45;;;;;;;5.57;3.00;;;;;;;18.98;61.24;99971.56;344930;28;1057;-74
2022/05/18 00:36:57;;;;;;;6.80;2.83;;;;;;;18.96;61.42;99969.03;345076;28;1030;-74
2022/05/18 00:37:09;;;;;;;6.40;2.80;;;;;;;18.98;61.49;99967.13;345335;28;1023;-75
2022/05/18 00:37:21;;;;;;;5.28;2.75;;;;;;;18.99;61.31;99974.09;345177;28;1353;-74
2022/05/18 00:37:33;;;;;;;4.47;2.80;;;;;;;19.00;61.30;99965.25;345129;28;1144;-75
2022/05/18 00:37:45;;;;;;;4.40;2.97;;;;;;;18.96;61.80;99971.66;345378;28;1302;-75
2022/05/18 00:37:58;;;;;;;4.15;2.85;;;;;;;18.98;61.68;99967.13;343778;28;1261;-75
2022/05/18 00:38:10;;;;;;;3.22;2.50;;;;;;;18.96;61.67;99969.03;343991;28;1055;-74
2022/05/18 00:38:22;;;;;;;4.75;2.50;;;;;;;18.95;61.54;99964.69;343629;28;1156;-74
2022/05/18 00:38:34;;;;;;;5.85;2.50;;;;;;;18.95;61.60;99967.31;343629;28;1029;-74
2022/05/18 00:38:46;;;;;;;5.00;2.70;;;;;;;18.98;61.39;99972.41;343797;28;1028;-74
2022/05/18 00:38:58;;;;;;;4.35;3.00;;;;;;;18.99;61.24;99968.81;343993;28;1124;-74
2022/05/18 00:39:10;;;;;;;4.20;2.90;;;;;;;19.00;61.33;99967.88;343665;28;1011;-75
2022/05/18 00:39:22;;;;;;;4.65;2.65;;;;;;;19.00;61.65;99959.97;343824;28;1074;-74
2022/05/18 00:39:34;;;;;;;4.75;2.78;;;;;;;19.02;61.48;99968.63;343634;28;1064;-74
2022/05/18 00:39:46;;;;;;;4.85;2.90;;;;;;;19.03;61.49;99964.22;343877;28;1342;-74
2022/05/18 00:39:58;;;;;;;4.50;2.83;;;;;;;19.02;61.82;99962.53;345124;28;1213;-74
2022/05/18 00:40:13;;;;;;;4.30;2.83;;;;;;;19.02;61.70;99962.53;344937;28;992;-74
2022/05/18 00:40:26;;;;;;;4.70;3.15;;;;;;;19.01;61.58;99959.03;344139;28;865;-74
2022/05/18 00:40:42;;;;;;;5.60;3.38;;;;;;;19.03;61.28;99967.69;343688;28;1187;-75
2022/05/18 00:40:55;;;;;;;6.05;3.08;;;;;;;19.02;61.45;99971.28;343651;28;1020;-75
2022/05/18 00:41:07;;;;;;;4.70;2.83;;;;;;;18.99;61.30;99966.19;343606;28;1252;-75
2022/05/18 00:41:22;;;;;;;6.07;2.95;;;;;;;18.97;61.32;99962.78;344057;28;1071;-74
2022/05/18 00:41:35;;;;;;;6.47;3.03;;;;;;;18.94;61.46;99966.47;343768;28;1059;-74
2022/05/18 00:41:47;;;;;;;4.75;3.05;;;;;;;18.94;61.58;99965.63;343537;28;1220;-74
2022/05/18 00:41:59;;;;;;;4.30;2.92;;;;;;;18.94;61.42;99955.94;343293;28;996;-74
2022/05/18 00:42:24;;;;;;;5.18;2.83;;;;;;;18.92;61.66;99957.00;343884;28;1009;-74
2022/05/18 00:42:36;;;;;;;5.55;3.00;;;;;;;18.93;61.38;99961.28;345304;28;867;-74
2022/05/18 00:42:48;;;;;;;5.47;3.00;;;;;;;18.92;61.52;99959.63;345424;28;1249;-74
2022/05/18 00:43:00;;;;;;;6.05;2.97;;;;;;;18.90;61.62;99953.59;345040;28;1307;-74
2022/05/18 00:43:33;;;;;;;5.68;2.88;;;;;;;18.87;61.49;99961.69;345396;28;1086;-74
2022/05/18 00:43:45;;;;;;;3.75;2.88;;;;;;;18.85;61.69;99966.19;342153;28;1431;-74
2022/05/18 00:43:57;;;;;;;4.38;2.80;;;;;;;18.81;61.85;99965.53;342160;28;1088;-74
2022/05/18 00:44:09;;;;;;;4.35;2.65;;;;;;;18.80;61.97;99963.03;344318;28;1298;-74
2022/05/18 00:44:22;;;;;;;4.40;2.70;;;;;;;18.81;62.10;99960.25;345190;28;1176;-74
2022/05/18 00:44:34;;;;;;;4.53;2.90;;;;;;;18.84;61.97;99969.78;344980;28;1275;-74
2022/05/18 00:44:46;;;;;;;4.53;2.90;;;;;;;18.83;61.88;99958.38;345459;28;732;-74
2022/05/18 00:44:58;;;;;;;4.15;2.80;;;;;;;18.83;61.69;99962.81;345011;28;1030;-75
2022/05/18 00:45:11;;;;;;;4.90;2.67;;;;;;;18.83;61.58;99966.28;345022;28;1213;-75
2022/05/18 00:45:23;;;;;;;5.18;2.80;;;;;;;18.85;61.56;99966.19;344954;28;1055;-74
2022/05/18 00:45:36;;;;;;;4.13;2.78;;;;;;;18.81;61.81;99965.53;345033;28;1082;-74
2022/05/18 00:45:48;;;;;;;3.15;2.72;;;;;;;18.83;61.75;99957.53;345042;28;1075;-75
2022/05/18 00:46:05;;;;;;;3.65;2.80;;;;;;;18.85;61.41;99968.84;345351;28;1063;-74
2022/05/18 00:46:17;;;;;;;3.72;2.88;;;;;;;18.77;61.76;99962.22;345444;28;1056;-74
2022/05/18 00:46:35;;;;;;;4.07;2.90;;;;;;;18.77;61.71;99959.59;345062;28;997;-74
2022/05/18 00:46:47;;;;;;;4.70;2.83;;;;;;;18.77;61.69;99964.88;345079;28;1063;-74
2022/05/18 00:46:59;;;;;;;5.78;2.90;;;;;;;18.74;62.09;99970.31;345207;28;1073;-74
2022/05/18 00:47:31;;;;;;;6.97;3.00;;;;;;;18.72;62.12;99961.66;345130;28;1400;-74
2022/05/18 00:47:43;;;;;;;5.85;2.95;;;;;;;18.70;62.08;99962.69;345165;28;1181;-74
2022/05/18 00:47:56;;;;;;;6.57;2.80;;;;;;;18.71;61.87;99962.63;345290;28;1074;-74
2022/05/18 00:48:08;;;;;;;7.00;2.90;;;;;;;18.69;62.13;99961.88;345117;28;1047;-74
2022/05/18 00:48:20;;;;;;;5.88;3.10;;;;;;;18.67;62.28;99969.00;345476;28;728;-74
2022/05/18 00:48:32;;;;;;;4.63;2.88;;;;;;;18.68;62.10;99965.41;345182;28;1351;-74
2022/05/18 00:48:44;;;;;;;3.97;2.80;;;;;;;18.69;62.16;99964.50;345128;28;1134;-74
2022/05/18 00:48:57;;;;;;;3.85;2.80;;;;;;;18.70;62.19;99962.69;345106;28;1914;-74
2022/05/18 00:49:09;;;;;;;4.05;2.70;;;;;;;18.69;62.33;99963.63;345124;28;1082;-75
2022/05/18 00:49:21;;;;;;;5.10;2.80;;;;;;;18.64;62.36;99969.19;345097;28;1015;-74
2022/05/18 00:49:33;;;;;;;5.05;2.80;;;;;;;18.59;62.55;99967.75;345109;28;1142;-75
2022/05/18 00:49:53;;;;;;;4.03;2.70;;;;;;;18.53;62.65;99971.59;345054;28;1339;-74
2022/05/18 00:50:12;;;;;;;6.20;3.10;;;;;;;18.50;62.76;99969.19;345166;28;1211;-74
2022/05/18 00:50:32;;;;;;;6.15;3.08;;;;;;;18.47;62.75;99966.72;344869;28;1333;-74
2022/05/18 00:50:44;;;;;;;5.80;2.95;;;;;;;18.49;62.84;99973.59;345322;28;1184;-74
2022/05/18 00:51:00;;;;;;;4.18;2.75;;;;;;;18.50;62.76;99966.53;345300;28;1168;-74
2022/05/18 00:51:21;;;;;;;4.15;2.67;;;;;;;18.52;62.50;99970.78;345269;28;1302;-74
2022/05/18 00:51:38;;;;;;;5.53;2.92;;;;;;;18.53;62.37;99969.84;345154;28;1063;-74
2022/05/18 00:51:54;;;;;;;4.40;2.70;;;;;;;18.54;62.60;99968.06;345024;28;1111;-74
2022/05/18 00:52:08;;;;;;;4.80;2.90;;;;;;;18.54;62.52;99968.06;345359;28;1047;-74
2022/05/18 00:52:27;;;;;;;4.53;2.90;;;;;;;18.54;62.62;99965.41;345265;28;1224;-74
2022/05/18 00:52:44;;;;;;;4.63;2.90;;;;;;;18.54;62.46;99968.06;345294;28;1198;-74
2022/05/18 00:53:04;;;;;;;5.35;3.00;;;;;;;18.53;62.67;99966.34;345044;28;1112;-74
2022/05/18 00:53:22;;;;;;;4.57;2.78;;;;;;;18.45;62.63;99968.59;345372;28;1297;-74
2022/05/18 00:53:40;;;;;;;5.07;2.90;;;;;;;18.47;62.69;99972.84;345186;28;1046;-74
2022/05/18 00:53:56;;;;;;;4.65;2.80;;;;;;;18.48;62.50;99971.06;345258;28;1519;-74
2022/05/18 00:54:14;;;;;;;4.07;2.65;;;;;;;18.47;62.61;99966.72;345251;28;1154;-74
2022/05/18 00:54:30;;;;;;;4.53;2.88;;;;;;;18.44;62.80;99974.81;345247;28;1022;-73
2022/05/18 00:54:43;;;;;;;5.45;3.00;;;;;;;18.40;62.85;99968.03;344900;28;1238;-73
2022/05/18 00:54:56;;;;;;;6.40;3.17;;;;;;;18.42;62.99;99974.06;345016;28;1039;-73
2022/05/18 00:55:12;;;;;;;6.05;3.22;;;;;;;18.42;63.15;99974.06;345415;28;1216;-73
2022/05/18 00:55:26;;;;;;;5.15;3.10;;;;;;;18.42;63.03;99972.28;345301;28;1032;-74
2022/05/18 00:55:43;;;;;;;5.40;2.95;;;;;;;18.39;63.17;99976.88;345427;28;1058;-74
2022/05/18 00:55:58;;;;;;;5.53;3.00;;;;;;;18.33;63.42;99976.31;344910;28;1200;-74
2022/05/18 00:56:15;;;;;;;5.13;2.90;;;;;;;18.35;63.38;99973.56;344877;28;893;-74
2022/05/18 00:56:35;;;;;;;5.00;3.03;;;;;;;18.32;63.37;99973.75;345067;28;1071;-74
2022/05/18 00:56:56;;;;;;;6.32;3.10;;;;;;;18.33;63.36;99965.78;344823;28;1072;-75
2022/05/18 00:57:14;;;;;;;5.88;3.00;;;;;;;18.25;63.49;99973.28;344710;28;1254;-74
2022/05/18 00:57:35;;;;;;;5.43;3.10;;;;;;;18.26;63.53;99968.88;344806;28;1051;-74
2022/05/18 00:57:54;;;;;;;4.93;3.03;;;;;;;18.20;64.06;99980.59;344832;28;1015;-74
2022/05/18 00:58:07;;;;;;;4.53;3.22;;;;;;;18.19;64.00;99973.66;345499;28;1330;-75
2022/05/18 00:58:20;;;;;;;5.40;3.30;;;;;;;18.20;63.80;99979.75;344944;28;1031;-74
2022/05/18 00:58:39;;;;;;;7.90;3.20;;;;;;;18.15;64.14;99977.41;345321;28;1086;-74
2022/05/18 00:58:59;;;;;;;6.32;3.00;;;;;;;18.16;63.64;99976.44;345154;28;1243;-74
2022/05/18 00:59:17;;;;;;;4.90;3.25;;;;;;;18.19;63.92;99973.66;345284;28;1278;-75
2022/05/18 00:59:35;;;;;;;4.10;3.20;;;;;;;18.20;63.98;99977.13;345300;28;1062;-75
2022/05/18 00:59:52;;;;;;;5.45;3.17;;;;;;;18.06;63.98;99972.66;345161;28;1318;-75
2022/05/18 01:00:16;;;;;;;5.40;3.05;;;;;;;18.09;64.34;99977.72;345258;28;1055;-75
2022/05/18 01:00:28;;;;;;;5.93;3.17;;;;;;;18.10;64.17;99976.81;345184;28;1074;-73
2022/05/18 01:00:42;;;;;;;5.25;3.05;;;;;;;18.09;64.06;99980.38;345295;28;1079;-73
2022/05/18 01:00:54;;;;;;;5.75;3.10;;;;;;;18.07;64.37;99974.34;345212;28;1312;-73
2022/05/18 01:01:08;;;;;;;5.30;3.17;;;;;;;18.03;64.49;99978.97;345220;28;1041;-73
2022/05/18 01:01:20;;;;;;;5.63;3.10;;;;;;;18.05;64.41;99982.34;345200;28;1039;-74
2022/05/18 01:01:32;;;;;;;5.00;3.20;;;;;;;18.06;64.47;99977.94;345294;28;1066;-74
2022/05/18 01:01:45;;;;;;;4.60;3.10;;;;;;;18.08;64.42;99981.31;345061;28;1190;-74
2022/05/18 01:01:59;;;;;;;4.65;3.20;;;;;;;18.07;64.64;99974.34;345332;28;1010;-74
2022/05/18 01:02:12;;;;;;;5.10;3.20;;;;;;;18.06;64.53;99988.44;345158;28;1041;-75
2022/05/18 01:02:32;;;;;;;5.40;3.20;;;;;;;18.05;64.52;99974.47;345300;28;1058;-75
2022/05/18 01:02:49;;;;;;;6.07;3.20;;;;;;;18.10;64.02;99979.44;345242;28;1046;-74
2022/05/18 01:03:13;;;;;;;8.40;3.00;;;;;;;18.10;64.51;99979.44;345058;28;1755;-74
2022/05/18 01:03:51;;;;;;;8.30;3.00;;;;;;;18.11;64.35;99978.50;344849;28;1277;-73
2022/05/18 01:04:04;;;;;;;4.78;3.08;;;;;;;18.15;64.31;99977.41;345253;28;1586;-74
2022/05/18 01:04:16;;;;;;;3.78;3.05;;;;;;;18.18;63.97;99987.72;345171;28;1205;-74
2022/05/18 01:04:28;;;;;;;4.10;3.00;;;;;;;18.17;64.22;99986.88;345106;28;1039;-74
2022/05/18 01:04:44;;;;;;;3.90;2.90;;;;;;;18.18;63.88;99977.22;345095;28;1508;-74
2022/05/18 01:05:00;;;;;;;4.85;2.97;;;;;;;18.17;64.11;99983.41;345351;28;964;-74
2022/05/18 01:05:16;;;;;;;5.82;3.20;;;;;;;18.17;64.00;99978.16;345104;28;955;-74
2022/05/18 01:05:34;;;;;;;5.03;3.15;;;;;;;18.21;63.93;99982.31;345253;28;1232;-75
2022/05/18 01:05:51;;;;;;;5.63;3.20;;;;;;;18.22;63.76;99986.59;345234;28;1159;-74
2022/05/18 01:06:28;;;;;;;4.60;3.13;;;;;;;18.19;64.01;99978.91;345328;28;1244;-75
2022/05/18 01:07:12;;;;;;;4.63;3.22;;;;;;;18.20;63.99;99975.34;344785;28;1103;-75
2022/05/18 01:07:29;;;;;;;7.43;3.80;;;;;;;18.22;63.67;99983.97;339376;29;1274;-74
2022/05/18 01:07:47;;;;;;;5.75;3.38;;;;;;;18.25;63.72;99980.31;339569;29;1074;-75